Time;durP1;ratioP1;P1;durP2;ratioP2;P2;SDS_P1;SDS_P2;PMS_P1;PMS_P2;Temp;Humidity;BMP_temperature;BMP_pressure;BME280_temperature;BME280_humidity;BME280_pressure;Samples;Min_cycle;Max_cycle;Signal;HPM_P1;HPM_P2
2022/12/28 00:02:01;;;;;;;19.65;10.73;;;;;;;;;;4971685;28;20139;-60
2022/12/28 00:04:27;;;;;;;21.35;10.48;;;;;;;;;;4967723;28;20730;-59
2022/12/28 00:06:52;;;;;;;21.48;10.77;;;;;;;;;;4981246;28;20046;-59
2022/12/28 00:09:17;;;;;;;31.80;12.32;;;;;;;;;;4983554;28;20070;-59
2022/12/28 00:11:43;;;;;;;24.95;11.25;;;;;;;;;;4968944;28;20371;-58
2022/12/28 00:14:08;;;;;;;22.65;9.90;;;;;;;;;;4976759;28;20458;-59
2022/12/28 00:16:38;;;;;;;21.92;10.27;;;;;;;;;;4971371;28;20405;-59
2022/12/28 00:19:09;;;;;;;26.33;11.20;;;;;;;;;;4969997;28;20062;-59
2022/12/28 00:21:34;;;;;;;19.33;10.52;;;;;;;;;;4972873;28;20041;-59
2022/12/28 00:24:00;;;;;;;20.05;10.18;;;;;;;;;;4974610;28;20031;-59
2022/12/28 00:26:30;;;;;;;23.05;9.95;;;;;;;;;;4979352;28;20092;-59
2022/12/28 00:28:55;;;;;;;22.13;9.82;;;;;;;;;;4978513;28;20045;-58
2022/12/28 00:31:21;;;;;;;19.10;9.55;;;;;;;;;;4975154;28;20034;-59
2022/12/28 00:33:46;;;;;;;20.70;9.77;;;;;;;;;;4974880;28;20031;-59
2022/12/28 00:36:12;;;;;;;20.55;9.30;;;;;;;;;;4976975;28;20113;-60
2022/12/28 00:38:38;;;;;;;24.30;9.88;;;;;;;;;;4969060;28;20097;-59
2022/12/28 00:41:05;;;;;;;25.38;10.20;;;;;;;;;;4970620;28;20073;-58
2022/12/28 00:43:30;;;;;;;18.70;9.75;;;;;;;;;;4979981;28;20071;-59
2022/12/28 00:45:57;;;;;;;20.73;9.10;;;;;;;;;;4971089;28;20038;-59
2022/12/28 00:48:22;;;;;;;19.67;9.45;;;;;;;;;;4973932;28;20104;-58
2022/12/28 00:50:48;;;;;;;16.40;9.35;;;;;;;;;;4961946;28;20065;-59
2022/12/28 00:53:13;;;;;;;19.50;9.00;;;;;;;;;;4986421;28;20110;-59
2022/12/28 00:55:39;;;;;;;15.68;8.73;;;;;;;;;;4983733;28;20154;-59
2022/12/28 00:58:05;;;;;;;19.60;9.15;;;;;;;;;;4972296;28;20118;-58
2022/12/28 01:00:30;;;;;;;16.17;8.55;;;;;;;;;;4980656;28;20065;-60
2022/12/28 01:02:56;;;;;;;17.85;8.68;;;;;;;;;;4967068;28;20375;-60
2022/12/28 01:05:22;;;;;;;18.67;9.18;;;;;;;;;;4977403;28;20469;-58
2022/12/28 01:07:48;;;;;;;18.35;9.15;;;;;;;;;;4962578;28;20034;-58
2022/12/28 01:10:15;;;;;;;;;;;;;;;;;;4982563;28;20039;-59
2022/12/28 01:12:40;;;;;;;27.13;8.83;;;;;;;;;;4972711;28;19914;-59
2022/12/28 01:15:06;;;;;;;21.88;11.00;;;;;;;;;;4973807;28;20483;-59
2022/12/28 01:17:32;;;;;;;30.42;12.23;;;;;;;;;;4979080;28;20045;-59
2022/12/28 01:19:59;;;;;;;24.77;11.57;;;;;;;;;;4973527;28;20026;-59
2022/12/28 01:22:24;;;;;;;21.63;10.52;;;;;;;;;;4965225;28;20057;-60
2022/12/28 01:24:49;;;;;;;22.52;10.82;;;;;;;;;;4980968;28;20755;-58
2022/12/28 01:27:14;;;;;;;21.20;10.13;;;;;;;;;;4977037;28;20035;-59
2022/12/28 01:29:40;;;;;;;18.05;9.60;;;;;;;;;;4977971;28;20038;-59
2022/12/28 01:32:05;;;;;;;20.00;10.18;;;;;;;;;;4976412;28;20129;-59
2022/12/28 01:34:31;;;;;;;16.73;9.50;;;;;;;;;;4976712;28;20078;-59
2022/12/28 01:36:57;;;;;;;15.95;8.93;;;;;;;;;;4976105;28;20089;-59
2022/12/28 01:39:22;;;;;;;21.95;9.68;;;;;;;;;;4974955;28;20437;-58
2022/12/28 01:41:47;;;;;;;16.40;8.90;;;;;;;;;;4976797;28;20045;-59
2022/12/28 01:44:15;;;;;;;15.30;8.02;;;;;;;;;;4977094;28;20029;-59
2022/12/28 01:46:41;;;;;;;16.30;7.93;;;;;;;;;;4972815;28;20043;-60
2022/12/28 01:49:28;;;;;;;15.75;7.78;;;;;;;;;;4978837;28;20140;-59
2022/12/28 01:52:13;;;;;;;17.08;8.45;;;;;;;;;;4978309;28;20080;-59
2022/12/28 01:54:50;;;;;;;14.50;7.65;;;;;;;;;;4975513;28;20125;-59
2022/12/28 01:57:16;;;;;;;14.48;8.13;;;;;;;;;;4973993;28;20037;-59
2022/12/28 01:59:45;;;;;;;12.23;7.68;;;;;;;;;;4975511;28;20030;-60
2022/12/28 02:02:11;;;;;;;13.90;7.63;;;;;;;;;;4980218;28;20034;-59
2022/12/28 02:04:36;;;;;;;16.90;8.35;;;;;;;;;;4977970;28;20035;-59
2022/12/28 02:07:02;;;;;;;16.35;7.55;;;;;;;;;;4981469;28;20070;-59
2022/12/28 02:09:35;;;;;;;18.30;8.30;;;;;;;;;;4975778;28;20495;-59
2022/12/28 02:12:01;;;;;;;14.25;7.88;;;;;;;;;;4977680;28;20489;-59
2022/12/28 02:14:26;;;;;;;16.88;8.35;;;;;;;;;;4975492;28;20034;-60
2022/12/28 02:16:53;;;;;;;13.57;8.15;;;;;;;;;;4973240;28;20387;-59
2022/12/28 02:19:24;;;;;;;17.67;8.70;;;;;;;;;;4970084;28;20038;-60
2022/12/28 02:21:49;;;;;;;17.00;8.52;;;;;;;;;;4984039;28;20448;-59
2022/12/28 02:24:18;;;;;;;15.25;7.85;;;;;;;;;;4977143;28;20041;-59
2022/12/28 02:26:43;;;;;;;14.90;8.15;;;;;;;;;;4981115;28;20470;-59
2022/12/28 02:29:21;;;;;;;14.57;7.25;;;;;;;;;;4976427;28;20023;-59
2022/12/28 02:31:53;;;;;;;14.48;8.82;;;;;;;;;;4980832;28;20121;-59
2022/12/28 02:34:23;;;;;;;12.77;7.82;;;;;;;;;;4972505;28;20038;-60
2022/12/28 02:36:51;;;;;;;12.27;7.07;;;;;;;;;;4977612;28;20053;-59
2022/12/28 02:39:22;;;;;;;13.48;7.72;;;;;;;;;;4973927;28;20035;-59
2022/12/28 02:41:49;;;;;;;18.27;7.97;;;;;;;;;;4973465;28;20050;-59
2022/12/28 02:50:04;;;;;;;16.85;7.38;;;;;;;;;;4988436;28;20045;-60
2022/12/28 02:52:33;;;;;;;13.85;7.07;;;;;;;;;;4972058;28;20035;-58
2022/12/28 02:58:02;;;;;;;10.43;6.80;;;;;;;;;;4974719;28;20140;-58
2022/12/28 03:00:47;;;;;;;11.80;6.25;;;;;;;;;;4974501;28;20034;-59
2022/12/28 03:03:13;;;;;;;10.93;6.03;;;;;;;;;;4958155;28;20034;-60
2022/12/28 03:08:42;;;;;;;10.20;6.22;;;;;;;;;;4974890;28;20043;-60
2022/12/28 03:11:09;;;;;;;10.07;5.60;;;;;;;;;;4974093;28;20073;-60
2022/12/28 03:13:41;;;;;;;10.95;6.25;;;;;;;;;;4976406;28;20034;-59
2022/12/28 03:16:27;;;;;;;10.95;5.95;;;;;;;;;;4972254;28;20039;-59
2022/12/28 03:32:48;;;;;;;11.75;5.88;;;;;;;;;;4978803;28;20049;-58
2022/12/28 03:35:15;;;;;;;8.88;6.00;;;;;;;;;;4980462;28;20034;-59
2022/12/28 03:38:00;;;;;;;11.63;5.78;;;;;;;;;;4971130;28;20132;-60
2022/12/28 03:40:32;;;;;;;9.40;5.60;;;;;;;;;;4968605;28;20045;-60
2022/12/28 03:45:50;;;;;;;11.52;5.88;;;;;;;;;;4971929;28;20050;-60
2022/12/28 03:48:20;;;;;;;10.85;6.03;;;;;;;;;;4970854;28;20130;-60
2022/12/28 03:50:47;;;;;;;11.32;5.35;;;;;;;;;;4973026;28;20046;-59
2022/12/28 03:53:19;;;;;;;9.18;5.72;;;;;;;;;;4980663;28;20042;-59
2022/12/28 03:55:44;;;;;;;10.27;5.20;;;;;;;;;;4970978;28;20097;-59
2022/12/28 03:58:11;;;;;;;9.50;5.30;;;;;;;;;;4975089;28;20035;-58
2022/12/28 04:00:37;;;;;;;9.50;5.40;;;;;;;;;;4973096;28;20608;-60
2022/12/28 04:03:02;;;;;;;9.00;5.18;;;;;;;;;;4983696;28;20525;-59
2022/12/28 04:05:28;;;;;;;9.50;4.53;;;;;;;;;;4972633;28;20416;-59
2022/12/28 04:07:53;;;;;;;11.75;4.68;;;;;;;;;;4972033;28;20053;-59
2022/12/28 04:10:19;;;;;;;9.52;4.95;;;;;;;;;;4973998;28;20105;-59
2022/12/28 04:12:44;;;;;;;8.88;4.72;;;;;;;;;;4968576;28;20031;-59
2022/12/28 04:15:54;;;;;;;8.18;4.30;;;;;;;;;;4931355;28;20044;-59
2022/12/28 04:18:20;;;;;;;7.40;4.28;;;;;;;;;;4969543;28;20042;-58
2022/12/28 04:20:46;;;;;;;8.18;4.25;;;;;;;;;;4989167;28;20074;-58
2022/12/28 04:23:11;;;;;;;8.82;4.50;;;;;;;;;;4971394;28;20105;-60
2022/12/28 04:25:37;;;;;;;7.75;4.38;;;;;;;;;;4975211;28;20109;-59
2022/12/28 04:28:02;;;;;;;9.15;4.50;;;;;;;;;;4977698;28;20031;-58
2022/12/28 04:30:46;;;;;;;9.00;4.68;;;;;;;;;;4978930;28;20092;-58
2022/12/28 04:33:12;;;;;;;10.30;4.80;;;;;;;;;;4979154;28;20030;-59
2022/12/28 04:35:38;;;;;;;8.77;4.85;;;;;;;;;;4967526;28;20145;-59
2022/12/28 04:38:03;;;;;;;9.70;4.80;;;;;;;;;;4968097;28;20113;-58
2022/12/28 04:40:28;;;;;;;9.00;4.88;;;;;;;;;;4982109;28;20092;-58
2022/12/28 04:42:54;;;;;;;7.93;4.22;;;;;;;;;;4970222;28;20030;-59
2022/12/28 04:45:19;;;;;;;7.88;4.15;;;;;;;;;;4969260;28;20114;-59
2022/12/28 04:47:44;;;;;;;8.63;4.10;;;;;;;;;;4973675;28;20039;-58
2022/12/28 04:50:10;;;;;;;8.07;4.78;;;;;;;;;;4971590;28;20023;-57
2022/12/28 04:52:35;;;;;;;10.32;3.70;;;;;;;;;;4973770;28;20579;-59
2022/12/28 04:55:00;;;;;;;5.80;3.78;;;;;;;;;;4970466;28;20073;-60
2022/12/28 04:57:25;;;;;;;7.32;3.78;;;;;;;;;;4971421;28;20027;-58
2022/12/28 04:59:51;;;;;;;7.60;3.80;;;;;;;;;;4969016;28;20398;-59
2022/12/28 05:02:16;;;;;;;8.07;3.88;;;;;;;;;;4971213;28;20793;-60
2022/12/28 05:04:41;;;;;;;6.20;4.00;;;;;;;;;;4973386;28;20118;-59
2022/12/28 05:07:07;;;;;;;8.48;4.30;;;;;;;;;;4969376;28;20090;-59
2022/12/28 05:09:32;;;;;;;5.97;3.63;;;;;;;;;;4974428;28;20027;-59
2022/12/28 05:11:57;;;;;;;7.93;4.18;;;;;;;;;;4973091;28;20683;-60
2022/12/28 05:14:22;;;;;;;6.55;3.65;;;;;;;;;;4971676;28;20121;-59
2022/12/28 05:16:51;;;;;;;7.40;4.00;;;;;;;;;;4974120;28;20035;-59
2022/12/28 05:19:16;;;;;;;6.15;4.10;;;;;;;;;;4970638;28;20070;-59
2022/12/28 05:21:41;;;;;;;6.15;3.83;;;;;;;;;;4975713;28;20108;-59
2022/12/28 05:24:07;;;;;;;7.22;3.70;;;;;;;;;;4973236;28;20068;-59
2022/12/28 05:26:33;;;;;;;5.88;3.88;;;;;;;;;;4970367;28;20114;-59
2022/12/28 05:28:59;;;;;;;8.98;4.18;;;;;;;;;;4969730;28;20031;-59
2022/12/28 05:31:25;;;;;;;6.80;4.00;;;;;;;;;;4979936;28;20030;-58
2022/12/28 05:33:51;;;;;;;6.70;4.00;;;;;;;;;;4972507;28;20035;-58
2022/12/28 05:36:17;;;;;;;8.52;3.70;;;;;;;;;;4977115;28;20065;-57
2022/12/28 05:38:43;;;;;;;8.73;4.22;;;;;;;;;;4968690;28;20026;-60
2022/12/28 05:41:10;;;;;;;7.82;4.53;;;;;;;;;;4970688;28;20035;-59
2022/12/28 05:43:36;;;;;;;7.50;4.47;;;;;;;;;;4969767;28;20031;-59
2022/12/28 05:46:05;;;;;;;8.13;4.82;;;;;;;;;;4976395;28;20045;-57
2022/12/28 05:48:31;;;;;;;8.48;4.90;;;;;;;;;;4972042;28;20039;-58
2022/12/28 05:50:58;;;;;;;9.23;4.73;;;;;;;;;;4976681;28;20580;-58
2022/12/28 05:53:23;;;;;;;8.07;4.60;;;;;;;;;;4968545;28;20026;-58
2022/12/28 05:55:48;;;;;;;8.70;5.30;;;;;;;;;;4971234;28;20402;-58
2022/12/28 05:58:14;;;;;;;8.15;4.60;;;;;;;;;;4968995;28;20027;-58
2022/12/28 06:00:39;;;;;;;9.68;5.07;;;;;;;;;;4972404;28;20180;-57
2022/12/28 06:03:04;;;;;;;8.52;4.97;;;;;;;;;;4971832;28;20694;-57
2022/12/28 06:05:30;;;;;;;10.93;5.00;;;;;;;;;;4977863;28;20039;-56
2022/12/28 06:07:55;;;;;;;8.93;4.70;;;;;;;;;;4974682;28;20038;-57
2022/12/28 06:10:20;;;;;;;11.40;5.00;;;;;;;;;;4971468;28;20655;-56
2022/12/28 06:12:45;;;;;;;8.68;5.03;;;;;;;;;;4974729;28;20061;-57
2022/12/28 06:15:11;;;;;;;12.73;5.22;;;;;;;;;;4973265;28;20042;-57
2022/12/28 06:17:36;;;;;;;6.78;4.72;;;;;;;;;;4976600;28;20027;-57
2022/12/28 06:20:02;;;;;;;8.23;4.68;;;;;;;;;;4980626;28;20030;-56
2022/12/28 06:22:27;;;;;;;11.18;4.80;;;;;;;;;;4972742;28;20031;-58
2022/12/28 06:24:52;;;;;;;8.38;4.88;;;;;;;;;;4974830;28;20043;-56
2022/12/28 06:27:18;;;;;;;10.38;4.90;;;;;;;;;;4978900;28;20027;-55
2022/12/28 06:29:43;;;;;;;9.32;5.15;;;;;;;;;;4972114;28;20349;-56
2022/12/28 06:32:08;;;;;;;7.75;4.22;;;;;;;;;;4975131;28;20490;-57
2022/12/28 06:34:33;;;;;;;6.32;3.63;;;;;;;;;;4974463;28;20038;-56
2022/12/28 06:36:59;;;;;;;5.88;3.25;;;;;;;;;;4974216;28;20038;-57
2022/12/28 06:39:24;;;;;;;9.77;3.80;;;;;;;;;;4974475;28;20027;-57
2022/12/28 06:41:49;;;;;;;6.28;4.00;;;;;;;;;;4975483;28;20569;-56
2022/12/28 06:44:15;;;;;;;7.78;3.10;;;;;;;;;;4975023;28;20045;-56
2022/12/28 06:46:40;;;;;;;6.13;3.55;;;;;;;;;;4990632;28;20049;-55
2022/12/28 06:49:06;;;;;;;8.57;2.95;;;;;;;;;;4973627;28;20038;-55
2022/12/28 06:51:39;;;;;;;4.25;2.30;;;;;;;;;;4976454;28;20031;-57
2022/12/28 06:54:04;;;;;;;6.85;2.40;;;;;;;;;;4976641;28;20039;-54
2022/12/28 06:56:31;;;;;;;3.60;2.00;;;;;;;;;;4975316;28;20035;-57
2022/12/28 06:58:56;;;;;;;3.33;1.75;;;;;;;;;;4984557;28;20046;-56
2022/12/28 07:01:23;;;;;;;4.20;1.90;;;;;;;;;;4973583;28;20051;-56
2022/12/28 07:03:49;;;;;;;4.90;1.83;;;;;;;;;;4982775;28;20107;-56
2022/12/28 07:06:16;;;;;;;3.47;2.08;;;;;;;;;;4982915;28;20042;-56
2022/12/28 07:08:41;;;;;;;3.85;2.00;;;;;;;;;;4972218;28;20108;-56
2022/12/28 07:11:08;;;;;;;7.90;1.92;;;;;;;;;;4977563;28;20436;-56
2022/12/28 07:13:33;;;;;;;2.88;1.63;;;;;;;;;;4973043;28;20484;-57
2022/12/28 07:16:06;;;;;;;5.40;2.53;;;;;;;;;;4974205;28;20072;-56
2022/12/28 07:18:32;;;;;;;6.13;3.33;;;;;;;;;;4980460;28;20034;-56
2022/12/28 07:20:58;;;;;;;8.00;3.50;;;;;;;;;;4972449;28;20053;-56
2022/12/28 07:23:28;;;;;;;5.38;2.55;;;;;;;;;;4975272;28;20026;-57
2022/12/28 07:25:54;;;;;;;4.15;2.10;;;;;;;;;;4972863;28;20031;-56
2022/12/28 07:28:19;;;;;;;6.57;2.10;;;;;;;;;;4979866;28;20367;-54
2022/12/28 07:30:44;;;;;;;5.30;2.15;;;;;;;;;;4970035;28;20150;-56
2022/12/28 07:33:10;;;;;;;2.70;1.75;;;;;;;;;;4982335;28;20594;-56
2022/12/28 07:35:35;;;;;;;3.58;1.92;;;;;;;;;;4970962;28;20039;-56
2022/12/28 07:38:00;;;;;;;5.18;1.90;;;;;;;;;;4972361;28;20520;-56
2022/12/28 07:40:25;;;;;;;3.60;1.70;;;;;;;;;;4976508;28;20034;-56
2022/12/28 07:42:51;;;;;;;5.43;2.13;;;;;;;;;;4981697;28;20089;-57
2022/12/28 07:45:16;;;;;;;3.25;1.98;;;;;;;;;;4976991;28;20030;-57
2022/12/28 07:47:41;;;;;;;7.15;2.20;;;;;;;;;;4974590;28;20034;-56
2022/12/28 07:50:09;;;;;;;8.40;3.03;;;;;;;;;;4975902;28;20026;-57
2022/12/28 07:52:36;;;;;;;3.30;2.10;;;;;;;;;;4982969;28;20035;-57
2022/12/28 07:55:01;;;;;;;4.25;2.28;;;;;;;;;;4971782;28;20035;-56
2022/12/28 07:57:27;;;;;;;4.00;2.13;;;;;;;;;;4977268;28;20049;-55
2022/12/28 07:59:52;;;;;;;7.15;2.00;;;;;;;;;;4964404;28;20437;-57
2022/12/28 08:02:17;;;;;;;5.97;2.17;;;;;;;;;;4979418;28;20045;-55
2022/12/28 08:04:43;;;;;;;2.63;1.80;;;;;;;;;;4973302;28;20038;-57
2022/12/28 08:07:08;;;;;;;5.22;2.22;;;;;;;;;;4972300;28;20082;-57
2022/12/28 08:09:33;;;;;;;3.88;1.95;;;;;;;;;;4979252;28;20042;-56
2022/12/28 08:11:59;;;;;;;4.05;2.20;;;;;;;;;;4972537;28;20579;-56
2022/12/28 08:14:24;;;;;;;5.97;2.15;;;;;;;;;;4976475;28;20033;-56
2022/12/28 08:16:50;;;;;;;5.15;2.17;;;;;;;;;;4975270;28;20690;-58
2022/12/28 08:19:15;;;;;;;5.72;2.65;;;;;;;;;;4976641;28;20027;-55
2022/12/28 08:21:42;;;;;;;3.33;1.98;;;;;;;;;;4976236;28;20504;-56
2022/12/28 08:24:08;;;;;;;5.15;2.10;;;;;;;;;;4969480;28;20046;-57
2022/12/28 08:26:37;;;;;;;4.53;1.90;;;;;;;;;;4972552;28;20158;-56
2022/12/28 08:29:04;;;;;;;4.72;2.10;;;;;;;;;;4973621;28;20033;-58
2022/12/28 08:31:32;;;;;;;4.38;2.20;;;;;;;;;;4975845;28;20031;-57
2022/12/28 08:33:58;;;;;;;5.97;2.60;;;;;;;;;;4971811;28;20034;-57
2022/12/28 08:36:27;;;;;;;4.38;2.40;;;;;;;;;;4975804;28;20136;-57
2022/12/28 08:38:52;;;;;;;9.27;3.17;;;;;;;;;;4972687;28;20031;-57
2022/12/28 08:41:19;;;;;;;6.90;3.20;;;;;;;;;;4973489;28;20682;-58
2022/12/28 08:43:44;;;;;;;6.18;3.60;;;;;;;;;;4971914;28;20065;-57
2022/12/28 08:46:11;;;;;;;6.63;3.50;;;;;;;;;;4974636;28;20425;-57
2022/12/28 08:48:36;;;;;;;6.22;3.80;;;;;;;;;;4972014;28;20700;-57
2022/12/28 08:51:06;;;;;;;6.05;3.10;;;;;;;;;;4966907;28;20591;-57
2022/12/28 08:53:32;;;;;;;6.45;3.38;;;;;;;;;;4975281;28;20034;-56
2022/12/28 08:56:07;;;;;;;5.10;2.88;;;;;;;;;;4978378;28;20029;-57
2022/12/28 08:58:32;;;;;;;5.43;2.60;;;;;;;;;;4975720;28;20034;-57
2022/12/28 09:01:06;;;;;;;5.18;2.15;;;;;;;;;;4972049;28;20030;-56
2022/12/28 09:03:33;;;;;;;4.18;2.40;;;;;;;;;;4977940;28;20039;-57
2022/12/28 09:06:01;;;;;;;5.97;2.30;;;;;;;;;;4975492;28;20081;-57
2022/12/28 09:08:26;;;;;;;3.85;1.85;;;;;;;;;;4975244;28;20038;-57
2022/12/28 09:10:51;;;;;;;3.95;1.88;;;;;;;;;;4971269;28;20027;-56
2022/12/28 09:13:16;;;;;;;4.82;2.05;;;;;;;;;;4975449;28;20558;-56
2022/12/28 09:15:42;;;;;;;4.60;2.20;;;;;;;;;;4973548;28;21174;-57
2022/12/28 09:18:07;;;;;;;4.13;2.30;;;;;;;;;;4962296;28;20061;-57
2022/12/28 09:20:34;;;;;;;4.38;2.38;;;;;;;;;;4968189;28;20086;-57
2022/12/28 09:23:00;;;;;;;;;;;;;;;;;;4976780;28;20062;-58
2022/12/28 09:25:25;;;;;;;6.37;2.90;;;;;;;;;;4976313;28;19949;-56
2022/12/28 09:27:50;;;;;;;6.25;3.00;;;;;;;;;;4974690;28;20529;-57
2022/12/28 09:30:15;;;;;;;7.80;4.75;;;;;;;;;;4971942;28;20031;-58
2022/12/28 09:32:41;;;;;;;8.30;3.45;;;;;;;;;;4973883;28;20081;-57
2022/12/28 09:35:06;;;;;;;6.57;2.83;;;;;;;;;;4972193;28;20836;-57
2022/12/28 09:37:31;;;;;;;5.90;2.80;;;;;;;;;;4974475;28;20400;-57
2022/12/28 09:39:57;;;;;;;5.78;2.90;;;;;;;;;;4975628;28;20084;-58
2022/12/28 09:42:25;;;;;;;7.88;3.20;;;;;;;;;;4974149;28;20026;-58
2022/12/28 09:45:17;;;;;;;5.75;2.90;;;;;;;;;;4962803;28;20105;-57
2022/12/28 09:47:46;;;;;;;4.55;2.45;;;;;;;;;;4967863;28;20441;-58
2022/12/28 09:50:24;;;;;;;5.05;2.50;;;;;;;;;;4974241;28;20034;-58
2022/12/28 09:53:05;;;;;;;5.78;2.47;;;;;;;;;;4976111;28;20066;-60
2022/12/28 09:55:32;;;;;;;6.50;2.55;;;;;;;;;;4973128;28;20105;-58
2022/12/28 09:57:58;;;;;;;5.85;2.45;;;;;;;;;;4978022;28;20489;-58
2022/12/28 10:00:24;;;;;;;9.23;2.97;;;;;;;;;;4974660;28;20031;-58
2022/12/28 10:02:57;;;;;;;4.22;2.67;;;;;;;;;;4983099;28;20030;-58
2022/12/28 10:05:23;;;;;;;8.13;2.67;;;;;;;;;;4973945;28;20417;-58
2022/12/28 10:07:50;;;;;;;6.10;2.95;;;;;;;;;;4973397;28;20049;-58
2022/12/28 10:10:17;;;;;;;6.27;2.60;;;;;;;;;;4975712;28;20710;-58
2022/12/28 10:12:42;;;;;;;9.93;3.08;;;;;;;;;;4974178;28;21324;-57
2022/12/28 10:15:11;;;;;;;6.97;3.10;;;;;;;;;;4979546;28;20040;-58
2022/12/28 10:17:37;;;;;;;4.85;2.55;;;;;;;;;;4974497;28;20034;-58
2022/12/28 10:20:02;;;;;;;6.55;2.63;;;;;;;;;;4972746;28;20503;-58
2022/12/28 10:22:35;;;;;;;8.25;3.58;;;;;;;;;;4990733;28;20088;-58
2022/12/28 10:25:00;;;;;;;7.40;2.92;;;;;;;;;;4975067;28;20481;-58
2022/12/28 10:27:29;;;;;;;9.70;3.05;;;;;;;;;;4975057;28;20078;-58
2022/12/28 10:29:54;;;;;;;4.95;2.45;;;;;;;;;;4970530;28;20035;-58
2022/12/28 10:32:20;;;;;;;5.30;2.65;;;;;;;;;;4975858;28;20441;-58
2022/12/28 10:34:53;;;;;;;7.28;2.70;;;;;;;;;;4979207;28;20055;-57
2022/12/28 10:37:19;;;;;;;7.03;2.30;;;;;;;;;;4987419;28;20448;-58
2022/12/28 10:39:52;;;;;;;3.42;2.08;;;;;;;;;;4974040;28;20473;-57
2022/12/28 10:42:23;;;;;;;4.85;2.15;;;;;;;;;;4974111;28;20920;-58
2022/12/28 10:44:49;;;;;;;3.65;2.00;;;;;;;;;;4971803;28;20039;-59
2022/12/28 10:47:28;;;;;;;6.60;1.92;;;;;;;;;;4984831;28;20580;-57
2022/12/28 10:49:53;;;;;;;2.55;1.50;;;;;;;;;;4973554;28;20034;-58
2022/12/28 10:52:19;;;;;;;3.35;1.63;;;;;;;;;;4976615;28;20461;-58
2022/12/28 10:54:45;;;;;;;2.15;1.55;;;;;;;;;;4972987;28;20512;-58
2022/12/28 10:57:18;;;;;;;3.42;1.77;;;;;;;;;;4974404;28;20030;-57
2022/12/28 10:59:45;;;;;;;3.40;1.90;;;;;;;;;;4971637;28;20113;-58
2022/12/28 11:02:31;;;;;;;4.35;2.00;;;;;;;;;;4970950;28;20046;-57
2022/12/28 11:05:03;;;;;;;3.42;1.63;;;;;;;;;;4971685;28;20090;-58
2022/12/28 11:07:33;;;;;;;4.25;2.05;;;;;;;;;;4976308;28;20041;-58
2022/12/28 11:10:14;;;;;;;4.30;1.95;;;;;;;;;;4965565;28;20400;-58
2022/12/28 11:12:41;;;;;;;5.45;1.90;;;;;;;;;;4972039;28;20495;-58
2022/12/28 11:15:12;;;;;;;4.57;1.80;;;;;;;;;;4978079;28;20045;-58
2022/12/28 11:17:40;;;;;;;4.57;2.08;;;;;;;;;;4976129;28;20035;-58
2022/12/28 11:20:07;;;;;;;7.45;2.70;;;;;;;;;;4972581;28;20959;-58
2022/12/28 11:22:33;;;;;;;;;;;;;;;;;;4974927;28;20519;-58
2022/12/28 11:24:59;;;;;;;2.28;1.73;;;;;;;;;;4974689;28;20097;-58
2022/12/28 11:27:24;;;;;;;3.50;1.70;;;;;;;;;;4973388;28;20034;-58
2022/12/28 11:29:53;;;;;;;3.88;1.90;;;;;;;;;;4977132;28;20062;-58
2022/12/28 11:32:23;;;;;;;6.30;2.85;;;;;;;;;;4972269;28;20038;-58
2022/12/28 11:34:50;;;;;;;6.80;2.88;;;;;;;;;;4972395;28;20045;-58
2022/12/28 11:37:15;;;;;;;7.68;2.90;;;;;;;;;;4971584;28;20026;-58
2022/12/28 11:39:42;;;;;;;4.47;1.90;;;;;;;;;;4976582;28;20413;-58
2022/12/28 11:42:07;;;;;;;2.42;1.80;;;;;;;;;;4975002;28;20038;-59
2022/12/28 11:44:39;;;;;;;3.42;2.25;;;;;;;;;;4957513;28;20046;-59
2022/12/28 11:47:13;;;;;;;5.07;1.80;;;;;;;;;;4972503;28;20037;-58
2022/12/28 11:49:38;;;;;;;4.00;1.75;;;;;;;;;;4970296;28;20062;-58
2022/12/28 11:52:16;;;;;;;4.97;1.70;;;;;;;;;;4965855;28;20470;-58
2022/12/28 11:54:52;;;;;;;4.05;2.00;;;;;;;;;;4972312;28;20053;-58
2022/12/28 11:57:32;;;;;;;3.70;1.80;;;;;;;;;;4973822;28;20072;-58
2022/12/28 12:00:33;;;;;;;2.70;1.70;;;;;;;;;;4972862;28;20035;-58
2022/12/28 12:02:59;;;;;;;4.15;1.90;;;;;;;;;;4936824;28;20035;-58
2022/12/28 12:05:34;;;;;;;3.55;1.80;;;;;;;;;;4953155;28;20042;-59
2022/12/28 12:07:59;;;;;;;3.88;2.00;;;;;;;;;;4972149;28;20042;-58
2022/12/28 12:10:30;;;;;;;3.60;1.90;;;;;;;;;;4976560;28;20767;-58
2022/12/28 12:12:56;;;;;;;9.10;4.97;;;;;;;;;;4968621;28;20126;-59
2022/12/28 12:15:26;;;;;;;15.15;8.07;;;;;;;;;;4971510;28;20116;-58
2022/12/28 12:18:00;;;;;;;5.50;2.80;;;;;;;;;;4969369;28;20098;-58
2022/12/28 12:20:29;;;;;;;4.10;2.25;;;;;;;;;;4972098;28;20062;-58
2022/12/28 12:22:57;;;;;;;4.10;2.10;;;;;;;;;;4971227;28;20074;-58
2022/12/28 12:25:23;;;;;;;5.63;2.30;;;;;;;;;;4970254;28;20034;-59
2022/12/28 12:27:59;;;;;;;17.83;12.23;;;;;;;;;;4964375;28;20065;-59
2022/12/28 12:30:26;;;;;;;15.40;9.70;;;;;;;;;;4967086;28;20473;-58
2022/12/28 12:32:51;;;;;;;6.03;3.00;;;;;;;;;;4971708;28;20522;-58
2022/12/28 12:35:19;;;;;;;6.22;3.03;;;;;;;;;;4972664;28;20466;-58
2022/12/28 12:37:50;;;;;;;3.58;2.13;;;;;;;;;;4973891;28;20038;-59
2022/12/28 12:40:34;;;;;;;3.95;2.03;;;;;;;;;;4973377;28;20022;-57
2022/12/28 12:43:18;;;;;;;3.70;1.95;;;;;;;;;;4969549;28;20126;-58
2022/12/28 12:45:54;;;;;;;3.53;2.10;;;;;;;;;;4972883;28;20118;-58
2022/12/28 12:48:28;;;;;;;3.22;2.00;;;;;;;;;;4968818;28;20923;-58
2022/12/28 12:51:13;;;;;;;3.20;1.70;;;;;;;;;;4975751;28;20520;-58
2022/12/28 12:53:48;;;;;;;4.78;2.17;;;;;;;;;;4972315;28;20034;-57
2022/12/28 12:56:29;;;;;;;5.35;1.77;;;;;;;;;;4969932;28;20073;-58
2022/12/28 12:58:54;;;;;;;4.68;2.15;;;;;;;;;;4971711;28;20030;-58
2022/12/28 13:01:22;;;;;;;4.78;2.00;;;;;;;;;;4971154;28;20037;-57
2022/12/28 13:03:48;;;;;;;4.40;2.03;;;;;;;;;;4969251;28;20141;-58
2022/12/28 13:06:18;;;;;;;4.20;2.25;;;;;;;;;;4971950;28;20080;-58
2022/12/28 13:08:44;;;;;;;2.65;1.60;;;;;;;;;;4969596;28;20050;-57
2022/12/28 13:11:10;;;;;;;4.50;1.77;;;;;;;;;;4970316;28;20034;-58
2022/12/28 13:13:37;;;;;;;2.20;1.60;;;;;;;;;;4974654;28;20046;-58
2022/12/28 13:16:06;;;;;;;4.20;1.85;;;;;;;;;;4984338;28;20042;-58
2022/12/28 13:18:32;;;;;;;3.55;1.75;;;;;;;;;;4968589;28;20043;-58
2022/12/28 13:21:01;;;;;;;3.95;1.90;;;;;;;;;;4977586;28;20034;-58
2022/12/28 13:23:28;;;;;;;3.95;2.08;;;;;;;;;;4971343;28;20058;-58
2022/12/28 13:25:58;;;;;;;3.77;1.90;;;;;;;;;;4970785;28;20048;-58
2022/12/28 13:28:26;;;;;;;3.78;1.60;;;;;;;;;;4967564;28;20460;-58
2022/12/28 13:31:02;;;;;;;2.70;1.73;;;;;;;;;;4968895;28;20046;-58
2022/12/28 13:33:29;;;;;;;2.95;1.65;;;;;;;;;;4969063;28;20054;-58
2022/12/28 13:36:10;;;;;;;4.63;1.92;;;;;;;;;;4968515;28;20153;-58
2022/12/28 13:38:35;;;;;;;4.45;2.00;;;;;;;;;;4971942;28;20049;-58
2022/12/28 13:41:01;;;;;;;4.60;1.60;;;;;;;;;;4974031;28;20076;-57
2022/12/28 13:43:45;;;;;;;5.40;2.00;;;;;;;;;;4972891;28;20030;-58
2022/12/28 13:46:12;;;;;;;5.40;2.10;;;;;;;;;;4971141;28;20093;-58
2022/12/28 13:48:43;;;;;;;3.28;1.70;;;;;;;;;;4970625;28;20046;-58
2022/12/28 13:51:13;;;;;;;4.75;2.30;;;;;;;;;;4972480;28;20579;-58
2022/12/28 13:53:42;;;;;;;4.13;2.30;;;;;;;;;;4956596;28;20030;-58
2022/12/28 13:56:10;;;;;;;8.85;3.88;;;;;;;;;;4969941;28;20045;-58
2022/12/28 13:58:38;;;;;;;16.05;7.85;;;;;;;;;;4972904;28;20113;-58
2022/12/28 14:01:05;;;;;;;15.48;6.35;;;;;;;;;;4972636;28;20129;-58
2022/12/28 14:03:33;;;;;;;;;;;;;;;;;;4972996;28;20039;-58
2022/12/28 14:05:59;;;;;;;18.20;7.20;;;;;;;;;;4970741;28;19929;-58
2022/12/28 14:08:26;;;;;;;38.83;12.82;;;;;;;;;;4968556;28;20034;-58
2022/12/28 14:10:51;;;;;;;43.10;11.90;;;;;;;;;;4971309;28;20036;-58
2022/12/28 14:13:17;;;;;;;58.67;16.67;;;;;;;;;;4972476;28;20031;-58
2022/12/28 14:15:43;;;;;;;34.72;11.60;;;;;;;;;;4971253;28;20037;-58
2022/12/28 14:18:12;;;;;;;43.60;16.02;;;;;;;;;;4972828;28;20039;-58
2022/12/28 14:20:48;;;;;;;22.83;8.98;;;;;;;;;;4969070;28;20035;-57
2022/12/28 14:23:19;;;;;;;18.65;7.43;;;;;;;;;;4972809;28;20056;-58
2022/12/28 14:25:44;;;;;;;23.27;10.00;;;;;;;;;;4976027;28;20117;-58
2022/12/28 14:28:30;;;;;;;33.15;14.77;;;;;;;;;;4971903;28;20031;-57
2022/12/28 14:30:55;;;;;;;30.55;13.88;;;;;;;;;;4970928;28;20049;-57
2022/12/28 14:33:22;;;;;;;27.75;14.25;;;;;;;;;;4971406;28;20648;-58
2022/12/28 14:35:49;;;;;;;29.70;15.00;;;;;;;;;;4974635;28;20133;-58
2022/12/28 14:38:19;;;;;;;19.92;9.85;;;;;;;;;;4971897;28;20035;-58
2022/12/28 14:40:50;;;;;;;18.55;10.32;;;;;;;;;;4971323;28;20038;-58
2022/12/28 14:43:21;;;;;;;22.17;11.43;;;;;;;;;;4973872;28;20041;-58
2022/12/28 14:45:46;;;;;;;28.52;17.23;;;;;;;;;;4973092;28;20045;-58
2022/12/28 14:48:22;;;;;;;23.65;13.90;;;;;;;;;;4972833;28;20070;-59
2022/12/28 14:50:56;;;;;;;17.55;11.65;;;;;;;;;;4971967;28;20034;-60
2022/12/28 14:53:22;;;;;;;12.65;8.90;;;;;;;;;;4973634;28;20095;-59
2022/12/28 14:56:02;;;;;;;5.78;3.58;;;;;;;;;;4973676;28;20112;-60
2022/12/28 14:58:30;;;;;;;6.65;4.40;;;;;;;;;;4971646;28;20114;-59
2022/12/28 15:00:59;;;;;;;6.25;2.90;;;;;;;;;;4970100;28;20038;-59
2022/12/28 15:03:29;;;;;;;7.18;2.70;;;;;;;;;;4971148;28;20038;-60
2022/12/28 15:05:58;;;;;;;4.22;2.80;;;;;;;;;;4972351;28;20038;-59
2022/12/28 15:08:24;;;;;;;6.30;3.28;;;;;;;;;;4971463;28;20031;-58
2022/12/28 15:10:54;;;;;;;4.57;2.70;;;;;;;;;;4972293;28;20418;-58
2022/12/28 15:13:20;;;;;;;5.18;2.50;;;;;;;;;;4972652;28;20026;-58